Time;durP1;ratioP1;P1;durP2;ratioP2;P2;SDS_P1;SDS_P2;PMS_P1;PMS_P2;Temp;Humidity;BMP_temperature;BMP_pressure;BME280_temperature;BME280_humidity;BME280_pressure;Samples;Min_cycle;Max_cycle;Signal;HPM_P1;HPM_P2
2021/05/21 00:02:20;;;;;;;1.30;0.50;;;;;;;13.84;49.73;96944.16;5009778;28;20389;-78
2021/05/21 00:04:45;;;;;;;0.47;0.40;;;;;;;13.80;50.23;96944.97;4994685;28;20476;-77
2021/05/21 00:07:10;;;;;;;0.82;0.30;;;;;;;13.81;49.80;96936.88;5022115;28;20083;-78
2021/05/21 00:09:38;;;;;;;0.98;0.45;;;;;;;13.67;49.96;96936.69;5027473;28;20060;-77
2021/05/21 00:12:04;;;;;;;2.63;0.45;;;;;;;13.78;48.81;96924.31;5011255;28;20025;-78
2021/05/21 00:14:29;;;;;;;1.27;0.38;;;;;;;13.81;49.24;96915.94;5006740;28;20072;-77
2021/05/21 00:16:55;;;;;;;2.03;0.55;;;;;;;13.68;48.73;96914.69;5024379;28;20607;-77
2021/05/21 00:19:20;;;;;;;0.60;0.43;;;;;;;13.84;49.63;96907.50;5030818;28;20438;-77
2021/05/21 00:21:46;;;;;;;0.45;0.32;;;;;;;13.89;48.70;96911.16;5012046;28;20049;-78
2021/05/21 00:24:11;;;;;;;0.98;0.30;;;;;;;13.90;48.52;96910.91;5014314;28;20033;-77
2021/05/21 00:26:36;;;;;;;0.70;0.30;;;;;;;13.85;49.20;96905.69;5015282;28;20538;-78
2021/05/21 00:29:02;;;;;;;1.00;0.32;;;;;;;13.98;48.30;96899.06;5013666;28;20036;-78
2021/05/21 00:31:28;;;;;;;0.47;0.40;;;;;;;14.05;48.12;96889.84;5031308;28;20067;-78
2021/05/21 00:33:53;;;;;;;0.35;0.32;;;;;;;14.07;47.75;96891.41;5031849;28;20037;-78
2021/05/21 00:36:18;;;;;;;0.50;0.40;;;;;;;14.05;48.58;96883.81;5031064;28;20111;-79
2021/05/21 00:38:44;;;;;;;1.23;0.50;;;;;;;13.98;47.29;96881.53;5001194;28;20033;-77
2021/05/21 00:41:09;;;;;;;1.23;0.50;;;;;;;14.12;48.28;96886.94;5014292;28;20443;-77
2021/05/21 00:43:35;;;;;;;0.77;0.40;;;;;;;14.10;47.98;96875.94;5018345;28;20415;-77
2021/05/21 00:46:01;;;;;;;0.93;0.40;;;;;;;14.09;47.90;96884.06;5027941;28;20036;-77
2021/05/21 00:48:26;;;;;;;1.15;0.30;;;;;;;13.92;47.93;96874.00;4997473;28;20029;-77
2021/05/21 00:50:52;;;;;;;0.95;0.40;;;;;;;13.98;47.19;96870.25;5013199;28;20048;-77
2021/05/21 00:53:18;;;;;;;0.35;0.35;;;;;;;14.07;47.72;96865.22;5007458;28;20066;-77
2021/05/21 00:55:43;;;;;;;0.63;0.20;;;;;;;14.05;47.07;96860.25;5030176;28;20031;-78
2021/05/21 00:58:10;;;;;;;1.67;0.38;;;;;;;14.09;47.09;96850.03;5026103;28;20037;-77
2021/05/21 01:00:37;;;;;;;0.50;0.30;;;;;;;14.04;47.36;96853.47;5020484;28;20574;-78
2021/05/21 01:03:02;;;;;;;1.90;0.40;;;;;;;13.63;47.72;96845.91;5005012;28;20029;-78
2021/05/21 01:05:28;;;;;;;0.50;0.40;;;;;;;13.91;47.23;96835.78;5007326;28;20511;-78
2021/05/21 01:07:53;;;;;;;0.52;0.40;;;;;;;13.91;47.70;96830.53;4989855;28;20028;-78
2021/05/21 01:10:19;;;;;;;1.30;0.30;;;;;;;13.80;47.65;96824.63;5002457;28;20033;-77
2021/05/21 01:12:45;;;;;;;2.78;0.40;;;;;;;13.78;47.60;96822.25;5027052;28;20489;-78
2021/05/21 01:15:12;;;;;;;0.80;0.43;;;;;;;13.78;47.39;96813.66;4997231;28;20435;-77
2021/05/21 01:17:37;;;;;;;0.50;0.50;;;;;;;13.84;47.56;96809.91;5023525;28;20038;-78
2021/05/21 01:20:06;;;;;;;0.88;0.47;;;;;;;13.79;48.19;96812.56;4990176;28;20033;-77
2021/05/21 01:22:31;;;;;;;0.90;0.32;;;;;;;13.86;47.62;96818.28;5013171;28;20063;-78
2021/05/21 01:24:57;;;;;;;1.30;0.45;;;;;;;14.00;47.88;96819.22;5012625;28;20416;-77
2021/05/21 01:27:22;;;;;;;1.55;0.40;;;;;;;13.75;48.57;96807.09;5002452;28;20076;-77
2021/05/21 01:29:48;;;;;;;1.95;0.50;;;;;;;13.87;47.89;96806.75;4998733;28;20037;-78
2021/05/21 01:32:13;;;;;;;0.57;0.30;;;;;;;13.97;47.45;96800.66;5002899;28;20115;-78
2021/05/21 01:34:39;;;;;;;1.40;0.80;;;;;;;13.96;47.30;96799.09;5013372;28;20029;-78
2021/05/21 01:37:19;;;;;;;0.43;0.38;;;;;;;13.69;47.81;96797.72;5013497;28;20362;-77
2021/05/21 01:39:45;;;;;;;1.35;0.50;;;;;;;13.86;47.50;96792.09;4986335;28;20040;-77
2021/05/21 01:42:12;;;;;;;0.80;0.30;;;;;;;13.83;47.50;96787.44;5007185;28;20033;-78
2021/05/21 01:44:39;;;;;;;0.80;0.30;;;;;;;13.89;47.41;96773.22;5011127;28;20447;-77
2021/05/21 01:47:04;;;;;;;0.40;0.40;;;;;;;13.82;47.18;96764.94;4989301;28;20121;-78
2021/05/21 01:49:30;;;;;;;1.83;0.65;;;;;;;13.81;47.77;96771.22;5013173;28;20116;-78
2021/05/21 01:51:58;;;;;;;2.75;0.50;;;;;;;13.78;48.26;96769.16;5029247;28;20037;-78
2021/05/21 01:54:24;;;;;;;2.03;0.50;;;;;;;13.82;48.08;96775.41;5029739;28;20091;-78
2021/05/21 01:56:52;;;;;;;1.08;0.30;;;;;;;13.75;48.45;96764.47;5029507;28;20030;-77
2021/05/21 01:59:24;;;;;;;1.38;0.40;;;;;;;13.79;47.95;96770.69;5001076;28;20497;-78
2021/05/21 02:01:50;;;;;;;3.67;0.30;;;;;;;13.73;47.92;96767.34;5029280;28;20064;-78
2021/05/21 02:04:16;;;;;;;0.95;0.40;;;;;;;13.66;47.74;96761.66;4995980;28;20033;-78
2021/05/21 02:06:43;;;;;;;0.60;0.25;;;;;;;13.65;47.55;96763.47;5006349;28;20028;-78
2021/05/21 02:09:10;;;;;;;1.83;0.40;;;;;;;13.58;48.48;96763.03;4996359;28;20155;-78
2021/05/21 02:11:36;;;;;;;1.58;0.40;;;;;;;13.74;47.56;96752.44;5028408;28;20030;-77
2021/05/21 02:14:03;;;;;;;0.73;0.40;;;;;;;13.65;47.92;96753.00;5013341;28;20025;-78
2021/05/21 02:16:28;;;;;;;0.80;0.30;;;;;;;13.57;48.33;96742.38;5016552;28;20094;-78
2021/05/21 02:18:54;;;;;;;1.10;0.30;;;;;;;13.67;47.41;96732.63;5012524;28;20540;-77
2021/05/21 02:21:19;;;;;;;0.52;0.40;;;;;;;13.79;48.00;96724.38;5028721;28;20029;-77
2021/05/21 02:23:45;;;;;;;0.60;0.35;;;;;;;13.81;48.23;96724.91;5012537;28;20040;-78
2021/05/21 02:26:10;;;;;;;1.48;0.50;;;;;;;13.65;48.23;96721.63;5005955;28;20481;-78
2021/05/21 02:28:35;;;;;;;0.90;0.30;;;;;;;13.76;48.03;96718.91;5010850;28;20053;-77
2021/05/21 02:31:01;;;;;;;0.60;0.22;;;;;;;13.67;48.50;96710.88;5010330;28;20026;-77
2021/05/21 02:33:27;;;;;;;0.52;0.20;;;;;;;13.80;48.45;96715.47;5026521;28;20088;-77
2021/05/21 02:35:53;;;;;;;1.00;0.28;;;;;;;13.78;47.54;96709.75;5029054;28;20026;-78
2021/05/21 02:38:18;;;;;;;0.60;0.30;;;;;;;13.78;47.58;96694.06;5028795;28;20049;-78
2021/05/21 02:40:45;;;;;;;0.68;0.35;;;;;;;13.71;47.77;96700.66;5011679;28;20029;-78
2021/05/21 02:43:11;;;;;;;0.52;0.52;;;;;;;13.72;47.29;96692.53;5028651;28;20109;-77
2021/05/21 02:45:36;;;;;;;1.08;0.35;;;;;;;13.80;48.10;96686.69;4995757;28;20129;-79
2021/05/21 02:48:02;;;;;;;1.40;0.38;;;;;;;13.89;47.82;96683.47;5013850;28;20033;-78
2021/05/21 02:50:27;;;;;;;2.55;0.38;;;;;;;13.76;47.62;96671.81;5007825;28;20052;-77
2021/05/21 02:52:52;;;;;;;0.93;0.20;;;;;;;13.60;47.96;96682.44;5011634;28;20068;-78
2021/05/21 02:55:18;;;;;;;1.77;0.60;;;;;;;13.77;48.41;96678.63;5011778;28;20388;-78
2021/05/21 02:57:43;;;;;;;1.25;0.40;;;;;;;13.73;48.04;96667.16;5043096;28;20040;-78
2021/05/21 03:00:09;;;;;;;1.17;0.40;;;;;;;13.61;47.16;96665.69;5022424;28;20041;-77
2021/05/21 03:02:34;;;;;;;0.30;0.30;;;;;;;13.81;47.32;96663.91;5028616;28;20037;-77
2021/05/21 03:05:00;;;;;;;0.98;0.40;;;;;;;13.82;47.56;96671.50;5021579;28;20029;-78
2021/05/21 03:07:25;;;;;;;0.50;0.40;;;;;;;13.43;48.02;96658.53;5022359;28;20047;-78
2021/05/21 03:09:50;;;;;;;1.33;0.65;;;;;;;13.67;47.67;96655.94;5027624;28;20025;-77
2021/05/21 03:12:16;;;;;;;0.47;0.30;;;;;;;13.62;48.18;96643.72;5021536;28;20029;-78
2021/05/21 03:14:42;;;;;;;0.85;0.20;;;;;;;13.71;48.27;96653.56;4988325;28;20026;-78
2021/05/21 03:17:08;;;;;;;1.52;0.47;;;;;;;13.64;47.84;96641.59;4989666;28;20029;-77
2021/05/21 03:19:33;;;;;;;0.55;0.30;;;;;;;13.50;48.41;96638.06;5011537;28;20501;-78
2021/05/21 03:21:58;;;;;;;0.88;0.40;;;;;;;13.52;48.42;96646.44;5005226;28;20033;-77
2021/05/21 03:24:24;;;;;;;3.05;0.70;;;;;;;13.37;48.21;96638.72;5011197;28;20045;-79
2021/05/21 03:26:50;;;;;;;1.58;0.32;;;;;;;13.43;48.50;96637.59;4989466;28;20469;-78
2021/05/21 03:29:16;;;;;;;0.50;0.30;;;;;;;13.51;47.72;96636.25;4998119;28;20049;-77
2021/05/21 03:31:42;;;;;;;1.45;0.50;;;;;;;13.49;48.62;96637.28;4994784;28;20037;-78
2021/05/21 03:34:08;;;;;;;1.77;0.35;;;;;;;13.18;48.78;96615.84;5007045;28;20041;-78
2021/05/21 03:36:33;;;;;;;1.23;0.30;;;;;;;13.32;48.44;96620.47;5007052;28;20025;-78
2021/05/21 03:38:59;;;;;;;0.68;0.30;;;;;;;13.36;48.61;96617.00;5015260;28;20211;-77
2021/05/21 03:41:25;;;;;;;1.00;0.30;;;;;;;13.28;48.79;96614.94;5001485;28;20113;-77
2021/05/21 03:43:50;;;;;;;1.15;0.50;;;;;;;13.27;48.72;96619.41;5013268;28;20072;-77
2021/05/21 03:46:16;;;;;;;1.75;0.57;;;;;;;13.30;48.25;96621.47;4998930;28;20033;-78
2021/05/21 03:48:41;;;;;;;1.55;0.30;;;;;;;13.22;48.14;96613.44;5000549;28;20033;-77
2021/05/21 03:51:07;;;;;;;0.80;0.40;;;;;;;13.28;48.83;96615.75;5027365;28;20084;-78
2021/05/21 03:53:33;;;;;;;0.50;0.30;;;;;;;13.40;48.64;96612.81;5027835;28;20033;-78
2021/05/21 03:55:59;;;;;;;0.65;0.30;;;;;;;13.38;48.69;96608.88;5010369;28;20048;-77
2021/05/21 03:58:24;;;;;;;1.48;0.32;;;;;;;13.23;48.33;96612.38;5005989;28;20513;-78
2021/05/21 04:00:50;;;;;;;0.47;0.40;;;;;;;13.27;48.29;96595.88;5004547;28;20038;-78
2021/05/21 04:03:15;;;;;;;0.45;0.25;;;;;;;13.29;48.19;96604.22;5027468;28;20499;-78
2021/05/21 04:05:41;;;;;;;1.85;0.55;;;;;;;13.38;48.18;96601.03;5011498;28;20068;-77
2021/05/21 04:08:06;;;;;;;1.85;0.30;;;;;;;13.34;48.09;96592.19;5010750;28;20032;-77
2021/05/21 04:10:32;;;;;;;0.70;0.50;;;;;;;13.41;48.00;96587.41;5022012;28;20100;-78
2021/05/21 04:12:58;;;;;;;0.47;0.40;;;;;;;13.43;48.07;96590.53;5001944;28;20027;-78
2021/05/21 04:15:23;;;;;;;1.00;0.32;;;;;;;13.50;48.18;96590.97;5025199;28;20033;-78
2021/05/21 04:17:48;;;;;;;0.70;0.40;;;;;;;13.44;49.39;96589.50;5005791;28;20033;-78
2021/05/21 04:20:15;;;;;;;1.13;0.30;;;;;;;13.40;48.65;96588.47;5028235;28;20484;-78
2021/05/21 04:22:40;;;;;;;1.33;0.40;;;;;;;13.38;48.35;96585.34;5011240;28;20021;-78
2021/05/21 04:25:07;;;;;;;1.50;0.50;;;;;;;13.47;48.52;96588.94;5005649;28;20528;-79
2021/05/21 04:27:32;;;;;;;1.38;0.30;;;;;;;13.41;49.09;96587.41;5008607;28;20030;-78
2021/05/21 04:29:58;;;;;;;0.70;0.30;;;;;;;13.38;49.16;96577.50;5024990;28;20046;-78
2021/05/21 04:32:23;;;;;;;1.85;0.30;;;;;;;13.52;48.47;96577.63;5008094;28;20516;-78
2021/05/21 04:34:49;;;;;;;1.80;0.45;;;;;;;13.38;49.13;96570.44;5004459;28;20040;-78
2021/05/21 04:37:14;;;;;;;0.55;0.40;;;;;;;13.48;49.91;96572.19;5027580;28;20033;-78
2021/05/21 04:39:39;;;;;;;0.55;0.30;;;;;;;13.63;48.72;96574.63;5024946;28;20061;-78
2021/05/21 04:42:05;;;;;;;0.70;0.40;;;;;;;13.71;48.81;96569.84;4983715;28;20035;-78
2021/05/21 04:44:31;;;;;;;1.17;0.60;;;;;;;13.79;49.15;96570.00;5027595;28;20029;-78
2021/05/21 04:46:56;;;;;;;1.65;0.40;;;;;;;13.88;49.30;96578.03;5009440;28;20045;-78
2021/05/21 04:49:37;;;;;;;1.27;0.30;;;;;;;13.91;48.46;96574.84;5026794;28;20061;-78
2021/05/21 04:52:08;;;;;;;1.58;0.75;;;;;;;13.83;48.22;96568.41;5012968;28;20034;-77
2021/05/21 04:54:35;;;;;;;0.40;0.30;;;;;;;14.09;48.62;96569.94;5027306;28;20038;-77
2021/05/21 04:57:01;;;;;;;2.25;0.40;;;;;;;13.84;50.25;96566.56;4991672;28;20026;-78
2021/05/21 04:59:27;;;;;;;1.67;0.40;;;;;;;13.92;49.52;96565.94;5006906;28;20098;-79
2021/05/21 05:01:52;;;;;;;1.27;0.30;;;;;;;13.91;49.10;96559.13;5012085;28;20477;-79
2021/05/21 05:04:18;;;;;;;1.38;0.50;;;;;;;14.02;48.58;96555.34;5030404;28;20116;-78
2021/05/21 05:06:43;;;;;;;1.55;0.40;;;;;;;14.07;49.22;96553.72;5011654;28;20039;-79
2021/05/21 05:09:10;;;;;;;1.45;0.40;;;;;;;14.14;49.09;96547.06;5030609;28;20107;-79
2021/05/21 05:11:39;;;;;;;0.70;0.50;;;;;;;14.11;47.91;96559.94;5012668;28;20079;-78
2021/05/21 05:14:04;;;;;;;1.35;0.40;;;;;;;14.24;48.58;96549.56;5029136;28;20032;-78
2021/05/21 05:16:30;;;;;;;0.32;0.30;;;;;;;14.35;48.26;96546.78;5013905;28;20038;-78
2021/05/21 05:18:55;;;;;;;1.20;0.30;;;;;;;14.57;48.19;96551.47;5007740;28;20064;-79
2021/05/21 05:21:21;;;;;;;0.60;0.60;;;;;;;14.51;48.55;96544.72;5028500;28;20038;-78
2021/05/21 05:23:47;;;;;;;0.50;0.40;;;;;;;14.57;48.54;96536.50;4996361;28;20033;-79
2021/05/21 05:26:12;;;;;;;1.55;0.30;;;;;;;14.46;48.31;96516.00;5013210;28;20469;-78
2021/05/21 05:28:42;;;;;;;2.70;0.40;;;;;;;14.58;47.91;96532.03;5000850;28;20045;-78
2021/05/21 05:31:08;;;;;;;1.75;0.40;;;;;;;14.55;48.06;96517.69;5028765;28;20070;-78
2021/05/21 05:33:33;;;;;;;0.90;0.50;;;;;;;14.72;47.33;96527.66;4997063;28;20034;-78
2021/05/21 05:35:59;;;;;;;1.30;0.30;;;;;;;14.86;47.80;96525.09;5006860;28;20481;-78
2021/05/21 05:38:25;;;;;;;1.65;0.40;;;;;;;14.93;47.51;96516.84;4990908;28;20037;-78
2021/05/21 05:40:51;;;;;;;0.40;0.28;;;;;;;14.89;47.67;96521.91;5029027;28;20549;-78
2021/05/21 05:43:16;;;;;;;1.88;0.38;;;;;;;14.98;47.26;96524.63;5016736;28;20442;-78
2021/05/21 05:45:41;;;;;;;1.45;0.50;;;;;;;15.05;48.03;96516.41;4995742;28;20417;-79
2021/05/21 05:48:07;;;;;;;1.90;0.35;;;;;;;15.09;46.92;96517.34;4995540;28;20025;-79
2021/05/21 05:50:34;;;;;;;1.02;0.30;;;;;;;14.94;47.88;96510.53;5029258;28;20112;-79
2021/05/21 05:53:00;;;;;;;0.47;0.32;;;;;;;15.22;47.97;96510.59;4991008;28;20033;-79
2021/05/21 05:55:26;;;;;;;1.27;0.30;;;;;;;15.41;46.86;96513.91;5030034;28;20159;-80
2021/05/21 05:57:52;;;;;;;2.58;0.40;;;;;;;15.24;48.29;96517.09;4990024;28;20055;-80
2021/05/21 06:00:18;;;;;;;3.30;0.73;;;;;;;15.25;48.24;96504.75;4996276;28;20116;-78
2021/05/21 06:02:43;;;;;;;2.00;0.50;;;;;;;15.29;47.36;96503.88;5012412;28;20037;-79
2021/05/21 06:05:09;;;;;;;3.38;0.40;;;;;;;15.24;47.78;96492.72;4992194;28;20495;-80
2021/05/21 06:07:34;;;;;;;1.05;0.30;;;;;;;15.39;46.83;96505.53;5025324;28;20029;-79
2021/05/21 06:10:06;;;;;;;1.80;0.40;;;;;;;15.28;47.62;96493.69;4990268;28;20064;-80
2021/05/21 06:12:31;;;;;;;1.10;0.50;;;;;;;15.48;48.10;96503.78;5003509;28;20357;-78
2021/05/21 06:14:57;;;;;;;0.95;0.30;;;;;;;15.60;48.21;96510.41;5028965;28;20140;-80
2021/05/21 06:17:22;;;;;;;0.93;0.60;;;;;;;15.38;47.13;96503.97;4986460;28;20165;-79
2021/05/21 06:19:48;;;;;;;1.42;0.43;;;;;;;15.65;48.05;96512.91;5008335;28;20033;-79
2021/05/21 06:22:13;;;;;;;1.38;0.50;;;;;;;15.63;48.20;96510.59;4995138;28;20052;-79
2021/05/21 06:24:40;;;;;;;1.50;0.50;;;;;;;15.60;47.73;96513.03;5012126;28;20427;-79
2021/05/21 06:29:34;;;;;;;1.52;0.47;;;;;;;15.69;47.38;96516.50;5029448;28;20036;-79
2021/05/21 06:31:59;;;;;;;0.70;0.40;;;;;;;15.89;47.45;96517.97;4988252;28;20497;-79
2021/05/21 06:34:25;;;;;;;1.38;0.30;;;;;;;15.85;47.01;96506.50;5021751;28;20060;-79
2021/05/21 06:36:50;;;;;;;1.13;0.52;;;;;;;15.79;46.89;96505.06;5028702;28;20040;-80
2021/05/21 06:39:16;;;;;;;1.92;0.60;;;;;;;15.86;48.35;96508.81;4988241;28;20133;-78
2021/05/21 06:41:41;;;;;;;2.40;0.60;;;;;;;15.88;47.58;96516.41;5015778;28;20033;-79
2021/05/21 06:44:06;;;;;;;0.77;0.32;;;;;;;15.86;48.59;96514.06;5028529;28;20033;-80
2021/05/21 06:46:32;;;;;;;2.25;0.45;;;;;;;16.06;46.03;96506.84;4988181;28;20397;-79
2021/05/21 06:48:57;;;;;;;2.25;0.70;;;;;;;16.19;46.72;96507.88;5025083;28;20537;-78
2021/05/21 06:51:23;;;;;;;0.77;0.40;;;;;;;16.25;47.24;96499.59;5025918;28;20284;-78
2021/05/21 06:53:48;;;;;;;1.25;0.50;;;;;;;16.19;45.10;96508.66;4989266;28;20088;-78
2021/05/21 06:56:15;;;;;;;1.88;0.50;;;;;;;16.25;46.49;96504.84;5024551;28;20121;-77
2021/05/21 06:58:41;;;;;;;1.75;0.50;;;;;;;16.15;45.92;96505.06;5000314;28;20042;-78
2021/05/21 07:01:06;;;;;;;0.95;0.50;;;;;;;16.29;46.63;96516.28;5008417;28;20075;-78
2021/05/21 07:03:32;;;;;;;1.88;0.60;;;;;;;15.94;46.27;96507.38;5018316;28;20116;-78
2021/05/21 07:05:57;;;;;;;1.30;0.30;;;;;;;15.87;47.00;96520.13;4997952;28;20061;-79
2021/05/21 07:08:25;;;;;;;3.38;0.57;;;;;;;15.74;47.98;96522.41;4986973;28;20053;-78
2021/05/21 07:10:51;;;;;;;1.05;0.30;;;;;;;15.74;47.31;96509.28;5023921;28;20484;-79
2021/05/21 07:13:18;;;;;;;1.77;0.90;;;;;;;15.38;48.68;96509.22;5014045;28;20092;-78
2021/05/21 07:15:44;;;;;;;1.75;0.50;;;;;;;15.71;47.40;96514.34;5000847;28;20417;-79
2021/05/21 07:18:09;;;;;;;1.67;0.45;;;;;;;15.65;46.97;96524.19;5005533;28;20033;-78
2021/05/21 07:20:36;;;;;;;2.00;0.52;;;;;;;15.59;47.67;96521.94;4993483;28;20039;-79
2021/05/21 07:23:02;;;;;;;1.08;0.50;;;;;;;15.68;47.05;96526.22;5019884;28;20026;-78
2021/05/21 07:25:27;;;;;;;1.98;0.85;;;;;;;15.68;47.79;96533.34;5017150;28;20030;-78
2021/05/21 07:27:53;;;;;;;2.05;0.77;;;;;;;15.63;47.86;96515.06;5004915;28;20136;-78
2021/05/21 07:30:19;;;;;;;0.93;0.40;;;;;;;15.53;47.70;96516.81;4976697;28;20035;-79
2021/05/21 07:32:45;;;;;;;1.55;0.30;;;;;;;15.36;48.69;96511.38;4987613;28;20025;-79
2021/05/21 07:35:11;;;;;;;1.65;0.50;;;;;;;15.60;47.23;96515.66;5004061;28;20060;-78
2021/05/21 07:37:36;;;;;;;0.60;0.38;;;;;;;15.40;48.33;96511.56;4979573;28;20049;-77
2021/05/21 07:40:06;;;;;;;1.23;0.80;;;;;;;14.98;49.27;96507.06;5019079;28;20041;-79
2021/05/21 07:42:33;;;;;;;3.33;1.02;;;;;;;15.15;48.92;96509.13;4996663;28;20098;-78
2021/05/21 07:44:59;;;;;;;1.67;0.60;;;;;;;15.22;48.89;96518.47;5014085;28;20350;-78
2021/05/21 07:47:24;;;;;;;1.25;0.50;;;;;;;15.20;48.21;96517.94;4992544;28;20038;-78
2021/05/21 07:49:49;;;;;;;1.33;1.08;;;;;;;15.13;49.16;96502.59;4979680;28;20108;-78
2021/05/21 07:52:15;;;;;;;2.35;0.50;;;;;;;15.20;49.26;96512.69;5009727;28;20543;-77
2021/05/21 07:54:40;;;;;;;1.02;0.50;;;;;;;15.48;49.03;96545.75;5009005;28;20041;-78
2021/05/21 07:57:06;;;;;;;1.27;0.77;;;;;;;15.41;48.24;96528.88;5011992;28;20061;-77
2021/05/21 07:59:31;;;;;;;0.70;0.70;;;;;;;15.53;48.14;96527.28;4996038;28;20038;-78
2021/05/21 08:01:56;;;;;;;0.98;0.70;;;;;;;15.62;49.28;96524.75;5014501;28;20030;-81
2021/05/21 08:04:22;;;;;;;1.10;0.40;;;;;;;15.50;48.13;96522.63;4976334;28;20068;-78
2021/05/21 08:06:47;;;;;;;1.73;0.80;;;;;;;15.73;48.70;96523.50;5015890;28;20136;-79
2021/05/21 08:09:13;;;;;;;1.92;0.55;;;;;;;15.52;49.54;96504.78;5009396;28;20120;-78
2021/05/21 08:11:38;;;;;;;1.70;0.70;;;;;;;15.73;49.65;96496.50;5019709;28;20029;-77
2021/05/21 08:14:04;;;;;;;5.10;0.63;;;;;;;15.65;49.65;96507.69;5007712;28;20242;-79
2021/05/21 08:16:29;;;;;;;2.00;0.38;;;;;;;15.53;48.65;96506.31;5010052;28;20495;-78
2021/05/21 08:18:56;;;;;;;1.55;0.40;;;;;;;15.70;49.01;96510.97;4984444;28;20026;-79
2021/05/21 08:21:22;;;;;;;2.75;0.60;;;;;;;15.64;50.77;96506.88;4981354;28;20087;-78
2021/05/21 08:23:48;;;;;;;2.55;0.50;;;;;;;15.97;48.10;96527.78;4993248;28;20476;-79
2021/05/21 08:26:13;;;;;;;1.25;0.77;;;;;;;15.67;51.04;96531.78;5024050;28;20086;-82
2021/05/21 08:28:39;;;;;;;2.45;0.60;;;;;;;15.89;50.53;96539.75;5007918;28;20394;-80
2021/05/21 08:31:04;;;;;;;3.45;0.70;;;;;;;15.77;49.89;96528.97;5011315;28;20037;-77
2021/05/21 08:33:30;;;;;;;6.40;1.65;;;;;;;15.79;50.01;96537.31;5010090;28;20030;-81
2021/05/21 08:35:56;;;;;;;1.42;0.50;;;;;;;15.86;49.71;96547.44;4981020;28;20038;-78
2021/05/21 08:38:22;;;;;;;1.70;0.80;;;;;;;15.74;49.59;96551.28;5006409;28;20040;-78
2021/05/21 08:40:48;;;;;;;3.95;0.73;;;;;;;15.82;49.29;96547.25;4993721;28;20040;-80
2021/05/21 08:43:14;;;;;;;2.88;0.60;;;;;;;16.23;47.85;96569.28;5011306;28;20106;-80
2021/05/21 08:45:40;;;;;;;2.15;0.75;;;;;;;16.28;49.56;96567.31;4990734;28;20022;-80
2021/05/21 08:48:12;;;;;;;2.88;0.68;;;;;;;16.07;49.37;96559.09;5004690;28;20056;-79
2021/05/21 08:50:38;;;;;;;2.35;1.33;;;;;;;16.45;48.86;96550.13;5004544;28;20033;-79
2021/05/21 08:53:04;;;;;;;2.83;0.60;;;;;;;16.38;49.33;96550.53;5007503;28;20021;-80
2021/05/21 08:55:29;;;;;;;2.25;1.02;;;;;;;16.43;48.56;96554.91;4983051;28;20033;-81
2021/05/21 08:57:55;;;;;;;2.58;0.68;;;;;;;16.47;49.03;96561.13;4982398;28;20037;-79
2021/05/21 09:00:20;;;;;;;3.67;1.00;;;;;;;16.52;49.27;96553.13;4995217;28;20413;-80
2021/05/21 09:02:46;;;;;;;2.20;0.50;;;;;;;16.52;49.25;96553.13;5029083;28;20528;-79
2021/05/21 09:05:11;;;;;;;1.83;0.60;;;;;;;16.55;49.61;96547.25;5014743;28;20473;-81
2021/05/21 09:07:41;;;;;;;2.63;0.60;;;;;;;16.63;49.21;96546.53;5020138;28;20168;-80
2021/05/21 09:10:12;;;;;;;1.85;0.73;;;;;;;16.42;49.57;96540.22;4988556;28;20060;-79
2021/05/21 09:12:48;;;;;;;1.88;0.70;;;;;;;16.30;49.57;96538.13;5012479;28;20029;-79
2021/05/21 09:15:14;;;;;;;2.17;1.25;;;;;;;16.38;50.04;96547.13;5028693;28;20080;-81
2021/05/21 09:17:51;;;;;;;2.15;1.45;;;;;;;16.15;50.24;96560.22;5017430;28;20064;-80
2021/05/21 09:20:37;;;;;;;2.17;0.60;;;;;;;16.35;49.55;96550.34;5020925;28;20033;-80
2021/05/21 09:23:13;;;;;;;1.52;0.70;;;;;;;16.35;49.81;96547.72;4996006;28;20087;-80
2021/05/21 09:25:39;;;;;;;1.52;0.60;;;;;;;16.79;49.82;96554.06;5009519;28;20246;-78
2021/05/21 09:28:06;;;;;;;2.58;0.90;;;;;;;17.24;49.53;96548.81;5021574;28;20033;-80
2021/05/21 09:30:32;;;;;;;1.05;0.80;;;;;;;17.50;48.36;96542.88;4995776;28;20579;-80
2021/05/21 09:33:04;;;;;;;2.13;0.47;;;;;;;17.21;49.03;96542.28;5002126;28;20065;-80
2021/05/21 09:35:30;;;;;;;2.28;0.77;;;;;;;17.59;47.08;96564.72;5020767;28;20022;-80
2021/05/21 09:37:56;;;;;;;3.10;1.08;;;;;;;17.21;47.44;96575.72;5010145;28;20052;-79
2021/05/21 09:40:28;;;;;;;1.73;0.90;;;;;;;16.83;48.77;96549.78;5013006;28;20044;-79
2021/05/21 09:42:55;;;;;;;4.55;0.60;;;;;;;16.63;49.16;96549.16;5010368;28;20336;-79
2021/05/21 09:45:32;;;;;;;3.45;0.75;;;;;;;16.64;49.38;96542.84;5008021;28;20038;-81
2021/05/21 09:48:11;;;;;;;1.48;0.60;;;;;;;16.66;49.52;96551.22;5017065;28;20129;-79
2021/05/21 09:50:50;;;;;;;4.00;1.08;;;;;;;16.72;50.23;96543.22;4974961;28;20022;-80
2021/05/21 09:53:20;;;;;;;2.72;0.90;;;;;;;16.77;48.95;96541.22;4976797;28;20524;-81
2021/05/21 09:55:56;;;;;;;3.70;0.57;;;;;;;16.81;50.07;96538.75;5012546;28;20034;-79
2021/05/21 09:58:35;;;;;;;5.57;0.80;;;;;;;17.04;50.28;96537.69;5014065;28;20048;-79
2021/05/21 10:01:24;;;;;;;2.47;0.50;;;;;;;16.72;49.32;96553.72;4999055;28;20036;-80
2021/05/21 10:03:57;;;;;;;2.65;1.02;;;;;;;16.94;49.83;96556.38;4975780;28;20049;-80
2021/05/21 10:06:24;;;;;;;1.42;0.50;;;;;;;16.84;49.36;96559.25;5009374;28;20393;-81
2021/05/21 10:08:52;;;;;;;2.55;0.73;;;;;;;16.81;51.13;96551.91;5021126;28;20033;-81
2021/05/21 10:11:17;;;;;;;1.17;0.35;;;;;;;17.43;50.15;96543.31;5011060;28;20064;-79
2021/05/21 10:13:45;;;;;;;2.30;0.60;;;;;;;18.03;47.22;96536.69;5010314;28;20049;-80
2021/05/21 10:16:11;;;;;;;1.42;0.50;;;;;;;18.12;47.25;96540.09;5016560;28;20022;-80
2021/05/21 10:18:40;;;;;;;1.85;0.80;;;;;;;17.93;46.52;96547.50;5012189;28;20717;-80
2021/05/21 10:21:09;;;;;;;2.58;0.60;;;;;;;17.99;48.59;96514.66;5003917;28;20026;-78
2021/05/21 10:23:40;;;;;;;1.42;0.47;;;;;;;18.40;45.71;96534.53;5011493;28;20048;-79
2021/05/21 10:26:17;;;;;;;1.40;0.80;;;;;;;18.55;46.17;96540.41;5008430;28;20036;-79
2021/05/21 10:28:49;;;;;;;2.22;1.00;;;;;;;18.31;45.39;96533.75;4997781;28;20018;-78
2021/05/21 10:31:17;;;;;;;1.35;0.77;;;;;;;18.18;45.90;96532.03;4980363;28;20400;-79
2021/05/21 10:33:45;;;;;;;2.20;0.77;;;;;;;18.48;45.99;96541.66;4974683;28;20032;-80
2021/05/21 10:36:23;;;;;;;1.70;0.70;;;;;;;18.33;45.52;96553.47;5007842;28;20034;-79
2021/05/21 10:39:04;;;;;;;1.90;0.60;;;;;;;18.23;45.32;96545.06;4995042;28;20038;-80
2021/05/21 10:41:30;;;;;;;2.00;0.80;;;;;;;18.36;45.13;96549.41;5007881;28;20034;-78
2021/05/21 10:43:58;;;;;;;2.75;0.50;;;;;;;18.58;44.92;96539.81;4997944;28;20038;-81
2021/05/21 10:46:25;;;;;;;2.22;0.57;;;;;;;18.53;44.10;96552.03;4996522;28;20034;-81
2021/05/21 10:48:53;;;;;;;1.38;0.73;;;;;;;18.32;43.99;96527.41;4981090;28;20073;-80
2021/05/21 10:51:19;;;;;;;3.97;0.65;;;;;;;18.10;45.65;96534.34;4999038;28;20092;-81
2021/05/21 10:53:46;;;;;;;2.20;0.75;;;;;;;17.93;45.21;96521.94;5007614;28;20092;-81
2021/05/21 10:56:15;;;;;;;3.53;0.98;;;;;;;18.02;43.48;96529.09;5007330;28;20026;-80
2021/05/21 10:58:44;;;;;;;3.38;0.90;;;;;;;18.06;44.91;96541.34;4992891;28;20547;-80
2021/05/21 11:01:17;;;;;;;1.55;0.63;;;;;;;17.88;44.19;96529.22;4994052;28;20018;-80
2021/05/21 11:03:58;;;;;;;2.13;0.60;;;;;;;17.95;43.54;96534.81;4994336;28;20033;-80
2021/05/21 11:06:25;;;;;;;2.95;0.95;;;;;;;18.29;42.99;96523.53;4993221;28;20038;-81
2021/05/21 11:09:06;;;;;;;2.55;0.65;;;;;;;17.71;43.19;96516.75;4991756;28;20046;-80
2021/05/21 11:11:48;;;;;;;2.85;0.60;;;;;;;17.79;43.71;96511.50;4976815;28;20231;-82
2021/05/21 11:14:25;;;;;;;3.38;0.70;;;;;;;17.92;42.13;96535.41;4991826;28;20065;-80
2021/05/21 11:16:58;;;;;;;2.40;0.70;;;;;;;18.08;44.36;96531.25;5009522;28;20023;-81
2021/05/21 11:19:26;;;;;;;3.38;0.75;;;;;;;18.27;43.47;96533.59;5015274;28;20212;-81
2021/05/21 11:22:05;;;;;;;3.95;0.73;;;;;;;18.07;42.89;96527.06;4996088;28;20475;-79
2021/05/21 11:24:45;;;;;;;3.85;0.98;;;;;;;18.31;43.11;96520.56;5024434;28;20036;-81
2021/05/21 11:27:14;;;;;;;4.35;1.08;;;;;;;18.85;40.76;96513.09;4983545;28;20079;-81
2021/05/21 11:29:51;;;;;;;3.83;1.02;;;;;;;18.25;41.88;96513.91;4994907;28;20036;-80
2021/05/21 11:32:19;;;;;;;3.40;0.65;;;;;;;18.37;40.80;96516.72;4999614;28;20682;-81
2021/05/21 11:34:46;;;;;;;3.60;0.70;;;;;;;18.17;41.15;96510.19;5000805;28;20030;-80
2021/05/21 11:37:19;;;;;;;6.07;0.90;;;;;;;18.22;42.28;96488.19;5015361;28;20045;-80